Time;durP1;ratioP1;P1;durP2;ratioP2;P2;SDS_P1;SDS_P2;PMS_P1;PMS_P2;Temp;Humidity;BMP_temperature;BMP_pressure;BME280_temperature;BME280_humidity;BME280_pressure;Samples;Min_cycle;Max_cycle;Signal;HPM_P1;HPM_P2
2022/03/17 00:00:42;;;;;;;;;;;19.00;52.60;;;;;;5007908;28;19917;-64
2022/03/17 00:03:08;;;;;;;;;;;18.90;52.50;;;;;;5009212;28;19925;-63
2022/03/17 00:05:33;;;;;;;;;;;18.90;52.50;;;;;;5010965;28;19920;-66
2022/03/17 00:07:58;;;;;;;;;;;18.90;52.50;;;;;;5008539;28;19932;-64
2022/03/17 00:10:24;;;;;;;;;;;18.90;52.60;;;;;;5009743;28;19913;-66
2022/03/17 00:12:49;;;;;;;;;;;18.90;53.30;;;;;;5011040;28;20372;-66
2022/03/17 00:15:15;;;;;;;;;;;18.90;52.60;;;;;;5008400;28;19944;-64
2022/03/17 00:17:41;;;;;;;;;;;18.80;52.60;;;;;;5007236;28;20024;-66
2022/03/17 00:20:07;;;;;;;;;;;18.90;52.70;;;;;;5008288;28;19914;-67
2022/03/17 00:22:33;;;;;;;;;;;18.90;52.70;;;;;;5006687;28;20109;-67
2022/03/17 00:24:58;;;;;;;;;;;18.80;52.70;;;;;;5009017;28;19996;-67
2022/03/17 00:27:24;;;;;;;;;;;18.80;52.70;;;;;;5010001;28;19913;-67
2022/03/17 00:29:50;;;;;;;;;;;18.80;52.70;;;;;;5011854;28;19917;-63
2022/03/17 00:32:15;;;;;;;;;;;18.90;52.70;;;;;;5008522;28;19932;-67
2022/03/17 00:37:25;;;;;;;;;;;18.80;52.80;;;;;;4997678;28;19921;-67
2022/03/17 00:39:51;;;;;;;;;;;18.80;52.80;;;;;;5015457;28;19913;-66
2022/03/17 00:42:17;;;;;;;;;;;18.80;52.70;;;;;;5007493;28;19918;-67
2022/03/17 00:44:42;;;;;;;;;;;18.80;52.80;;;;;;5008565;28;19925;-66
2022/03/17 00:47:08;;;;;;;;;;;18.80;52.80;;;;;;5008363;28;20297;-65
2022/03/17 00:49:33;;;;;;;;;;;18.80;52.80;;;;;;5007282;28;19921;-67
2022/03/17 00:51:59;;;;;;;;;;;18.80;52.80;;;;;;5010067;28;19918;-67
2022/03/17 00:54:25;;;;;;;;;;;18.80;52.80;;;;;;5012284;28;19918;-64
2022/03/17 00:56:50;;;;;;;;;;;18.80;52.80;;;;;;5011438;28;20414;-66
2022/03/17 00:59:16;;;;;;;;;;;18.70;52.80;;;;;;5014356;28;19914;-63
2022/03/17 01:01:41;;;;;;;;;;;18.80;52.90;;;;;;5011033;28;19918;-65
2022/03/17 01:04:07;;;;;;;;;;;18.80;52.90;;;;;;5015367;28;19940;-67
2022/03/17 01:06:32;;;;;;;;;;;18.80;53.00;;;;;;5010935;28;19914;-67
2022/03/17 01:08:58;;;;;;;;;;;18.70;53.00;;;;;;5010911;28;19917;-66
2022/03/17 01:11:23;;;;;;;;;;;18.80;53.00;;;;;;5012010;28;19913;-63
2022/03/17 01:13:48;;;;;;;;;;;18.80;53.00;;;;;;5014252;28;19963;-67
2022/03/17 01:16:15;;;;;;;;;;;18.80;53.00;;;;;;5013735;28;19993;-65
2022/03/17 01:18:40;;;;;;;;;;;18.70;53.10;;;;;;5011540;28;19960;-67
2022/03/17 01:21:06;;;;;;;;;;;18.80;52.90;;;;;;5011111;28;19953;-63
2022/03/17 01:23:32;;;;;;;;;;;18.70;52.90;;;;;;5012204;28;19940;-67
2022/03/17 01:25:58;;;;;;;;;;;18.70;53.00;;;;;;5012749;28;20763;-67
2022/03/17 01:28:23;;;;;;;;;;;18.70;53.00;;;;;;5011510;28;19921;-66
2022/03/17 01:30:50;;;;;;;;;;;18.80;53.00;;;;;;5014253;28;20303;-67
2022/03/17 01:33:15;;;;;;;;;;;18.70;53.00;;;;;;5010831;28;19920;-67
2022/03/17 01:35:41;;;;;;;;;;;18.70;53.00;;;;;;5010633;28;19977;-67
2022/03/17 01:38:06;;;;;;;;;;;18.70;53.10;;;;;;5011102;28;19913;-67
2022/03/17 01:40:32;;;;;;;;;;;18.70;53.10;;;;;;5010362;28;19918;-64
2022/03/17 01:42:57;;;;;;;;;;;18.70;53.00;;;;;;5011932;28;19917;-64
2022/03/17 01:45:25;;;;;;;;;;;18.80;53.10;;;;;;5011247;28;19913;-66
2022/03/17 01:47:50;;;;;;;;;;;18.70;53.00;;;;;;5011715;28;19918;-64
2022/03/17 01:50:16;;;;;;;;;;;18.70;53.10;;;;;;5013657;28;20462;-67
2022/03/17 01:52:41;;;;;;;;;;;18.70;53.10;;;;;;5010948;28;19918;-67
2022/03/17 01:55:07;;;;;;;;;;;18.70;53.10;;;;;;5011315;28;19922;-67
2022/03/17 01:57:33;;;;;;;;;;;18.70;53.10;;;;;;5011314;28;19984;-67
2022/03/17 01:59:58;;;;;;;;;;;18.70;53.10;;;;;;5013332;28;19921;-67
2022/03/17 02:02:24;;;;;;;;;;;18.70;53.00;;;;;;5011019;28;20452;-67
2022/03/17 02:04:50;;;;;;;;;;;18.60;52.90;;;;;;5015539;28;19928;-67
2022/03/17 02:07:15;;;;;;;;;;;18.60;53.00;;;;;;5011454;28;19913;-64
2022/03/17 02:09:41;;;;;;;;;;;18.60;53.10;;;;;;5011109;28;20004;-64
2022/03/17 02:14:53;;;;;;;;;;;18.50;53.30;;;;;;5010290;28;19929;-66
2022/03/17 02:17:19;;;;;;;;;;;18.50;53.30;;;;;;5011334;28;20625;-67
2022/03/17 02:19:44;;;;;;;;;;;18.50;53.30;;;;;;5009343;28;19957;-63
2022/03/17 02:22:13;;;;;;;;;;;18.50;53.40;;;;;;5009741;28;19992;-66
2022/03/17 02:27:33;;;;;;;;;;;18.50;53.40;;;;;;5002243;28;19932;-67
2022/03/17 02:29:59;;;;;;;;;;;18.50;53.50;;;;;;5010661;28;19918;-67
2022/03/17 02:32:24;;;;;;;;;;;18.50;53.40;;;;;;5011190;28;19988;-63
2022/03/17 02:34:50;;;;;;;;;;;18.50;53.40;;;;;;5009850;28;19941;-67
2022/03/17 02:37:16;;;;;;;;;;;18.50;53.20;;;;;;5010558;28;19975;-67
2022/03/17 02:39:42;;;;;;;;;;;18.50;53.30;;;;;;5010053;28;19967;-66
2022/03/17 02:42:10;;;;;;;;;;;18.50;53.30;;;;;;5009054;28;19996;-66
2022/03/17 02:44:36;;;;;;;;;;;18.50;53.30;;;;;;5011033;28;19914;-66
2022/03/17 02:47:01;;;;;;;;;;;18.50;53.20;;;;;;5010065;28;19920;-66
2022/03/17 02:49:28;;;;;;;;;;;18.40;53.20;;;;;;5009617;28;20000;-63
2022/03/17 02:51:54;;;;;;;;;;;18.50;53.30;;;;;;5009664;28;19918;-66
2022/03/17 02:54:19;;;;;;;;;;;18.50;53.20;;;;;;5009501;28;19917;-65
2022/03/17 02:56:45;;;;;;;;;;;18.50;53.40;;;;;;5016691;28;20292;-67
2022/03/17 02:59:10;;;;;;;;;;;18.40;53.30;;;;;;5010027;28;19913;-67
2022/03/17 03:01:36;;;;;;;;;;;18.40;53.40;;;;;;5008420;28;19956;-68
2022/03/17 03:04:01;;;;;;;;;;;18.40;53.40;;;;;;5010651;28;20111;-67
2022/03/17 03:06:26;;;;;;;;;;;18.40;53.40;;;;;;5010410;28;19917;-67
2022/03/17 03:08:52;;;;;;;;;;;18.40;53.30;;;;;;5010276;28;19972;-67
2022/03/17 03:11:17;;;;;;;;;;;18.40;53.40;;;;;;5009203;28;20416;-67
2022/03/17 03:13:43;;;;;;;;;;;18.40;53.40;;;;;;5009911;28;19913;-68
2022/03/17 03:16:09;;;;;;;;;;;18.50;53.30;;;;;;5011080;28;19917;-67
2022/03/17 03:18:34;;;;;;;;;;;18.40;53.30;;;;;;5011946;28;19928;-67
2022/03/17 03:21:00;;;;;;;;;;;18.40;53.30;;;;;;5013169;28;19924;-65
2022/03/17 03:23:25;;;;;;;;;;;18.40;53.90;;;;;;5009889;28;19913;-67
2022/03/17 03:25:51;;;;;;;;;;;18.30;53.40;;;;;;5009201;28;19921;-67
2022/03/17 03:28:16;;;;;;;;;;;18.30;53.40;;;;;;5009951;28;19940;-67
2022/03/17 03:30:42;;;;;;;;;;;18.40;53.30;;;;;;5009159;28;20315;-64
2022/03/17 03:33:07;;;;;;;;;;;18.40;53.20;;;;;;5009527;28;19922;-68
2022/03/17 03:38:18;;;;;;;;;;;18.30;53.10;;;;;;5017001;28;19925;-68
2022/03/17 03:40:44;;;;;;;;;;;18.30;53.10;;;;;;5009704;28;19913;-67
2022/03/17 03:43:09;;;;;;;;;;;18.30;53.10;;;;;;5009595;28;19917;-68
2022/03/17 03:45:35;;;;;;;;;;;18.30;53.10;;;;;;5008538;28;19914;-67
2022/03/17 03:48:00;;;;;;;;;;;18.30;53.10;;;;;;5009720;28;19925;-66
2022/03/17 03:50:26;;;;;;;;;;;18.30;53.00;;;;;;5009277;28;19933;-67
2022/03/17 03:52:51;;;;;;;;;;;18.30;53.10;;;;;;5009813;28;19936;-67
2022/03/17 03:55:17;;;;;;;;;;;18.30;53.00;;;;;;5008154;28;19919;-67
2022/03/17 03:57:42;;;;;;;;;;;18.40;52.90;;;;;;5010113;28;19918;-67
2022/03/17 04:00:25;;;;;;;;;;;18.30;52.90;;;;;;5009092;28;20415;-67
2022/03/17 04:02:51;;;;;;;;;;;18.40;52.80;;;;;;5008724;28;19977;-67
2022/03/17 04:05:18;;;;;;;;;;;18.30;52.90;;;;;;5007980;28;20288;-67
2022/03/17 04:07:44;;;;;;;;;;;18.30;52.90;;;;;;5007586;28;19930;-66
2022/03/17 04:10:09;;;;;;;;;;;18.30;52.90;;;;;;5013473;28;19921;-63
2022/03/17 04:12:34;;;;;;;;;;;18.30;52.90;;;;;;5009495;28;20019;-67
2022/03/17 04:15:00;;;;;;;;;;;18.30;53.00;;;;;;5009049;28;20063;-67
2022/03/17 04:17:26;;;;;;;;;;;18.20;53.10;;;;;;5015864;28;19924;-67
2022/03/17 04:19:51;;;;;;;;;;;18.20;53.20;;;;;;5009843;28;19921;-67
2022/03/17 04:22:17;;;;;;;;;;;18.10;53.20;;;;;;5009040;28;19935;-65
2022/03/17 04:24:42;;;;;;;;;;;18.20;53.50;;;;;;5008992;28;19914;-64
2022/03/17 04:27:08;;;;;;;;;;;18.00;53.60;;;;;;5011947;28;19924;-65
2022/03/17 04:29:33;;;;;;;;;;;18.00;53.70;;;;;;5013469;28;19917;-67
2022/03/17 04:31:59;;;;;;;;;;;18.00;53.80;;;;;;5013184;28;19918;-67
2022/03/17 04:34:24;;;;;;;;;;;17.90;54.00;;;;;;5013276;28;19917;-67
2022/03/17 04:36:50;;;;;;;;;;;17.90;54.10;;;;;;5012086;28;19922;-67
2022/03/17 04:39:16;;;;;;;;;;;17.90;54.10;;;;;;5011768;28;19960;-67
2022/03/17 04:41:41;;;;;;;;;;;18.00;54.10;;;;;;5012444;28;19913;-67
2022/03/17 04:44:07;;;;;;;;;;;18.00;54.20;;;;;;5013014;28;19920;-67
2022/03/17 04:46:32;;;;;;;;;;;18.00;54.10;;;;;;5013332;28;20491;-68
2022/03/17 04:48:58;;;;;;;;;;;18.00;54.00;;;;;;5017484;28;19921;-67
2022/03/17 04:51:23;;;;;;;;;;;18.00;54.00;;;;;;5011312;28;19929;-67
2022/03/17 04:53:49;;;;;;;;;;;18.00;54.00;;;;;;5013326;28;20490;-67
2022/03/17 04:56:16;;;;;;;;;;;18.00;54.10;;;;;;5013872;28;19913;-65
2022/03/17 04:58:42;;;;;;;;;;;18.00;54.00;;;;;;5012070;28;20022;-67
2022/03/17 05:01:08;;;;;;;;;;;18.00;54.00;;;;;;5013544;28;20021;-68
2022/03/17 05:03:33;;;;;;;;;;;18.00;53.90;;;;;;5011829;28;20020;-67
2022/03/17 05:05:59;;;;;;;;;;;18.00;53.90;;;;;;5014734;28;20499;-66
2022/03/17 05:08:24;;;;;;;;;;;18.00;53.90;;;;;;5014610;28;19917;-67
2022/03/17 05:10:52;;;;;;;;;;;18.00;53.90;;;;;;5014866;28;19956;-66
2022/03/17 05:13:18;;;;;;;;;;;18.00;53.90;;;;;;5015707;28;20403;-67
2022/03/17 05:15:43;;;;;;;;;;;18.00;53.90;;;;;;5014030;28;19940;-66
2022/03/17 05:18:09;;;;;;;;;;;18.00;53.80;;;;;;5012883;28;19980;-60
2022/03/17 05:20:35;;;;;;;;;;;18.00;53.80;;;;;;5009932;28;19921;-64
2022/03/17 05:23:04;;;;;;;;;;;18.00;53.70;;;;;;5010727;28;19925;-66
2022/03/17 05:25:31;;;;;;;;;;;18.00;53.80;;;;;;5012205;28;19932;-67
2022/03/17 05:27:56;;;;;;;;;;;18.00;53.90;;;;;;5008407;28;19914;-68
2022/03/17 05:30:22;;;;;;;;;;;18.00;53.90;;;;;;5008010;28;19926;-66
2022/03/17 05:32:47;;;;;;;;;;;18.00;54.00;;;;;;5009780;28;19940;-67
2022/03/17 05:35:13;;;;;;;;;;;18.00;54.10;;;;;;5013844;28;19914;-64
2022/03/17 05:37:39;;;;;;;;;;;18.00;54.10;;;;;;5013559;28;19997;-68
2022/03/17 05:40:05;;;;;;;;;;;18.00;54.20;;;;;;5013108;28;19917;-66
2022/03/17 05:42:31;;;;;;;;;;;18.10;54.20;;;;;;5013347;28;19914;-67
2022/03/17 05:44:57;;;;;;;;;;;18.10;54.20;;;;;;5014028;28;20375;-65
2022/03/17 05:47:22;;;;;;;;;;;18.10;54.20;;;;;;5010026;28;19944;-66
2022/03/17 05:49:48;;;;;;;;;;;18.10;54.30;;;;;;5010925;28;20051;-65
2022/03/17 05:52:13;;;;;;;;;;;18.10;54.20;;;;;;5010208;28;20495;-64
2022/03/17 05:54:39;;;;;;;;;;;18.10;54.10;;;;;;5012151;28;19920;-65
2022/03/17 05:57:04;;;;;;;;;;;18.20;54.10;;;;;;5010775;28;19914;-65
2022/03/17 05:59:30;;;;;;;;;;;18.10;53.90;;;;;;5013944;28;19913;-65
2022/03/17 06:01:56;;;;;;;;;;;18.20;53.90;;;;;;5012138;28;20006;-64
2022/03/17 06:04:21;;;;;;;;;;;18.20;53.80;;;;;;5011994;28;19917;-65
2022/03/17 06:06:47;;;;;;;;;;;18.20;53.80;;;;;;5012227;28;20441;-62
2022/03/17 06:09:12;;;;;;;;;;;18.10;53.70;;;;;;5010836;28;19918;-65
2022/03/17 06:11:37;;;;;;;;;;;18.20;53.70;;;;;;5012172;28;19983;-65
2022/03/17 06:14:03;;;;;;;;;;;18.20;53.60;;;;;;5013624;28;20317;-65
2022/03/17 06:16:28;;;;;;;;;;;18.20;53.60;;;;;;5010555;28;19968;-65
2022/03/17 06:18:54;;;;;;;;;;;18.20;53.60;;;;;;5014234;28;19917;-67
2022/03/17 06:21:19;;;;;;;;;;;18.20;53.60;;;;;;5011831;28;20396;-67
2022/03/17 06:23:45;;;;;;;;;;;18.20;54.00;;;;;;5008341;28;19914;-67
2022/03/17 06:26:10;;;;;;;;;;;18.20;54.50;;;;;;5008811;28;19921;-67
2022/03/17 06:28:35;;;;;;;;;;;18.20;54.90;;;;;;5007613;28;19917;-66
2022/03/17 06:31:01;;;;;;;;;;;18.10;55.30;;;;;;5011469;28;19983;-67
2022/03/17 06:33:28;;;;;;;;;;;18.10;55.50;;;;;;5010588;28;19913;-67
2022/03/17 06:35:54;;;;;;;;;;;18.20;55.70;;;;;;5010213;28;19971;-67
2022/03/17 06:38:19;;;;;;;;;;;18.20;55.90;;;;;;5010856;28;19914;-67
2022/03/17 06:40:45;;;;;;;;;;;18.20;56.20;;;;;;5010638;28;19932;-67
2022/03/17 06:43:11;;;;;;;;;;;18.10;56.20;;;;;;5011090;28;19921;-67
2022/03/17 06:45:36;;;;;;;;;;;18.20;56.30;;;;;;5009840;28;19920;-67
2022/03/17 06:48:02;;;;;;;;;;;18.10;56.40;;;;;;5010668;28;19913;-66
2022/03/17 06:50:27;;;;;;;;;;;18.20;56.30;;;;;;5012246;28;19996;-67
2022/03/17 06:52:54;;;;;;;;;;;18.10;55.80;;;;;;5006713;28;19917;-66
2022/03/17 06:55:20;;;;;;;;;;;18.20;55.40;;;;;;5014586;28;19921;-67
2022/03/17 06:57:45;;;;;;;;;;;18.20;54.70;;;;;;5009370;28;19913;-67
2022/03/17 07:00:12;;;;;;;;;;;18.20;54.70;;;;;;5014219;28;19913;-67
2022/03/17 07:02:37;;;;;;;;;;;18.20;54.40;;;;;;5011940;28;20031;-67
2022/03/17 07:05:03;;;;;;;;;;;18.30;54.00;;;;;;5017792;28;20411;-66
2022/03/17 07:07:29;;;;;;;;;;;18.30;53.70;;;;;;5013811;28;19957;-67
2022/03/17 07:09:54;;;;;;;;;;;18.30;53.30;;;;;;5014556;28;19928;-67
2022/03/17 07:12:19;;;;;;;;;;;18.20;53.40;;;;;;5012849;28;19914;-67
2022/03/17 07:14:45;;;;;;;;;;;18.20;53.30;;;;;;5013511;28;19920;-67
2022/03/17 07:17:10;;;;;;;;;;;18.20;53.30;;;;;;5011466;28;19914;-67
2022/03/17 07:19:36;;;;;;;;;;;18.20;53.20;;;;;;5011325;28;19914;-67
2022/03/17 07:22:02;;;;;;;;;;;18.10;53.40;;;;;;5010617;28;20881;-66
2022/03/17 07:24:27;;;;;;;;;;;18.00;53.70;;;;;;5011972;28;19913;-67
2022/03/17 07:26:53;;;;;;;;;;;18.00;53.90;;;;;;5014544;28;19976;-66
2022/03/17 07:29:19;;;;;;;;;;;18.00;53.90;;;;;;5011233;28;19972;-67
2022/03/17 07:31:44;;;;;;;;;;;17.90;53.90;;;;;;5020561;28;19993;-66
2022/03/17 07:34:10;;;;;;;;;;;17.90;53.90;;;;;;5010677;28;19921;-66
2022/03/17 07:36:35;;;;;;;;;;;17.90;53.70;;;;;;5010319;28;19925;-66
2022/03/17 07:39:04;;;;;;;;;;;18.00;53.70;;;;;;5010762;28;19914;-67
2022/03/17 07:41:29;;;;;;;;;;;18.00;53.40;;;;;;5013795;28;19979;-67
2022/03/17 07:43:54;;;;;;;;;;;18.00;53.40;;;;;;5013468;28;20342;-66
2022/03/17 07:46:20;;;;;;;;;;;17.90;53.30;;;;;;5018251;28;19925;-67
2022/03/17 07:48:46;;;;;;;;;;;18.00;53.30;;;;;;5012569;28;19921;-67
2022/03/17 07:51:11;;;;;;;;;;;18.00;53.30;;;;;;5017956;28;19985;-67
2022/03/17 07:53:37;;;;;;;;;;;18.00;53.30;;;;;;5011255;28;19913;-67
2022/03/17 07:56:03;;;;;;;;;;;18.00;53.40;;;;;;5011344;28;19921;-66
2022/03/17 07:58:28;;;;;;;;;;;18.00;53.50;;;;;;5009514;28;19913;-66
2022/03/17 08:00:54;;;;;;;;;;;18.00;53.50;;;;;;5004052;28;19921;-67
2022/03/17 08:03:20;;;;;;;;;;;18.00;53.70;;;;;;5006892;28;19986;-67
2022/03/17 08:05:48;;;;;;;;;;;18.00;53.70;;;;;;5007946;28;19921;-67
2022/03/17 08:08:14;;;;;;;;;;;18.10;53.80;;;;;;5008126;28;19993;-66
2022/03/17 08:10:39;;;;;;;;;;;18.00;53.70;;;;;;5012772;28;20568;-67
2022/03/17 08:13:06;;;;;;;;;;;18.10;53.90;;;;;;5012108;28;19945;-67
2022/03/17 08:15:31;;;;;;;;;;;18.10;54.00;;;;;;5011326;28;19914;-66
2022/03/17 08:17:56;;;;;;;;;;;18.10;54.00;;;;;;5010706;28;20357;-67
2022/03/17 08:20:22;;;;;;;;;;;18.10;53.90;;;;;;5009220;28;19962;-67
2022/03/17 08:22:49;;;;;;;;;;;18.10;54.20;;;;;;5010166;28;19921;-67
2022/03/17 08:25:15;;;;;;;;;;;18.10;54.20;;;;;;5009950;28;19925;-67
2022/03/17 08:27:42;;;;;;;;;;;18.10;54.20;;;;;;5010349;28;19913;-67
2022/03/17 08:30:08;;;;;;;;;;;18.10;54.20;;;;;;5009753;28;19917;-67
2022/03/17 08:32:33;;;;;;;;;;;18.20;54.20;;;;;;5008911;28;19920;-67
2022/03/17 08:34:59;;;;;;;;;;;18.20;54.00;;;;;;5010980;28;20570;-68
2022/03/17 08:37:24;;;;;;;;;;;18.30;54.00;;;;;;5012326;28;19984;-68
2022/03/17 08:39:50;;;;;;;;;;;18.30;53.80;;;;;;5011181;28;19925;-68
2022/03/17 08:42:15;;;;;;;;;;;18.30;53.80;;;;;;5018105;28;19914;-68
2022/03/17 08:44:41;;;;;;;;;;;18.40;53.80;;;;;;5010701;28;20400;-68
2022/03/17 08:49:50;;;;;;;;;;;18.40;53.60;;;;;;5010150;28;19932;-67
2022/03/17 08:52:16;;;;;;;;;;;18.40;53.50;;;;;;5014794;28;19913;-68
2022/03/17 08:54:44;;;;;;;;;;;18.40;53.50;;;;;;5010478;28;19920;-68
2022/03/17 08:57:11;;;;;;;;;;;18.50;53.70;;;;;;5010176;28;19913;-67
2022/03/17 08:59:36;;;;;;;;;;;18.50;53.60;;;;;;5009361;28;19924;-67
2022/03/17 09:02:06;;;;;;;;;;;18.50;53.60;;;;;;5010026;28;20315;-68
2022/03/17 09:04:31;;;;;;;;;;;18.50;53.40;;;;;;5009381;28;19917;-67
2022/03/17 09:06:59;;;;;;;;;;;18.50;53.40;;;;;;5013184;28;19921;-67
2022/03/17 09:09:31;;;;;;;;;;;18.50;53.30;;;;;;5008238;28;19963;-67
2022/03/17 09:11:57;;;;;;;;;;;18.60;53.40;;;;;;5010091;28;19924;-68
2022/03/17 09:14:22;;;;;;;;;;;18.60;53.30;;;;;;5012333;28;19913;-68
2022/03/17 09:16:48;;;;;;;;;;;18.60;53.20;;;;;;5012263;28;19913;-68
2022/03/17 09:19:14;;;;;;;;;;;18.60;53.20;;;;;;5012606;28;19913;-68
2022/03/17 09:21:39;;;;;;;;;;;18.60;53.20;;;;;;5012868;28;19913;-68
2022/03/17 09:24:05;;;;;;;;;;;18.60;53.20;;;;;;5013560;28;19914;-68
2022/03/17 09:26:30;;;;;;;;;;;18.60;53.10;;;;;;5012314;28;21796;-67
2022/03/17 09:28:56;;;;;;;;;;;18.70;53.10;;;;;;5013896;28;19918;-67
2022/03/17 09:31:22;;;;;;;;;;;18.70;53.20;;;;;;5012157;28;19921;-67
2022/03/17 09:33:48;;;;;;;;;;;18.70;53.10;;;;;;5015791;28;19937;-68
2022/03/17 09:36:13;;;;;;;;;;;18.70;53.10;;;;;;5003762;28;19917;-68
2022/03/17 09:38:39;;;;;;;;;;;18.70;53.00;;;;;;5026093;28;19921;-68
2022/03/17 09:41:23;;;;;;;;;;;18.70;53.00;;;;;;5014134;28;19940;-68
2022/03/17 09:43:49;;;;;;;;;;;18.70;53.00;;;;;;5015232;28;19918;-67
2022/03/17 09:46:15;;;;;;;;;;;18.80;52.90;;;;;;5012578;28;19920;-67
2022/03/17 09:48:40;;;;;;;;;;;18.80;52.90;;;;;;5014976;28;19924;-68
2022/03/17 09:51:06;;;;;;;;;;;18.80;52.90;;;;;;5012841;28;19921;-67
2022/03/17 09:53:31;;;;;;;;;;;18.80;52.80;;;;;;5012366;28;19932;-68
2022/03/17 09:55:56;;;;;;;;;;;18.80;52.70;;;;;;5012806;28;19920;-67
2022/03/17 09:58:22;;;;;;;;;;;18.80;52.80;;;;;;5018352;28;20244;-66
2022/03/17 10:00:47;;;;;;;;;;;18.80;52.60;;;;;;5011915;28;19918;-68
2022/03/17 10:03:34;;;;;;;;;;;18.80;52.70;;;;;;5012290;28;19913;-68
2022/03/17 10:06:02;;;;;;;;;;;18.80;52.60;;;;;;5012867;28;19975;-68
2022/03/17 10:08:27;;;;;;;;;;;18.80;52.60;;;;;;5011540;28;19917;-66
2022/03/17 10:10:53;;;;;;;;;;;18.80;52.60;;;;;;5012564;28;19924;-68
2022/03/17 10:13:19;;;;;;;;;;;18.90;52.60;;;;;;5011523;28;19917;-68
2022/03/17 10:15:45;;;;;;;;;;;18.80;52.60;;;;;;5011245;28;20022;-68
2022/03/17 10:18:17;;;;;;;;;;;18.90;52.80;;;;;;5010719;28;19964;-67
2022/03/17 10:20:42;;;;;;;;;;;18.90;52.60;;;;;;5009705;28;19922;-68
2022/03/17 10:23:08;;;;;;;;;;;18.90;52.60;;;;;;5013132;28;19920;-68
2022/03/17 10:25:37;;;;;;;;;;;18.90;53.20;;;;;;5011096;28;19914;-68
2022/03/17 10:28:03;;;;;;;;;;;18.90;52.60;;;;;;5014589;28;19913;-68
2022/03/17 10:30:35;;;;;;;;;;;18.90;52.50;;;;;;5009890;28;21971;-67
2022/03/17 10:33:03;;;;;;;;;;;18.90;52.50;;;;;;5009908;28;20545;-67
2022/03/17 10:35:33;;;;;;;;;;;18.90;52.50;;;;;;5010398;28;21934;-68
2022/03/17 10:38:12;;;;;;;;;;;18.90;52.50;;;;;;5014244;28;19922;-67
2022/03/17 10:40:38;;;;;;;;;;;18.90;52.50;;;;;;5013301;28;20264;-66
2022/03/17 10:43:34;;;;;;;;;;;18.90;52.60;;;;;;5014677;28;20419;-68
2022/03/17 10:46:05;;;;;;;;;;;18.90;52.60;;;;;;4991023;28;20153;-68
2022/03/17 10:48:31;;;;;;;;;;;18.90;52.70;;;;;;5009699;28;19955;-68
2022/03/17 10:50:56;;;;;;;;;;;18.90;52.60;;;;;;5013966;28;19996;-67
2022/03/17 10:53:28;;;;;;;;;;;18.90;52.40;;;;;;5011131;28;19920;-67
2022/03/17 10:55:55;;;;;;;;;;;18.90;52.50;;;;;;5014320;28;19944;-67
2022/03/17 10:58:20;;;;;;;;;;;18.90;52.50;;;;;;5013216;28;19941;-66
2022/03/17 11:00:52;;;;;;;;;;;18.80;52.50;;;;;;5014921;28;19917;-67
2022/03/17 11:03:18;;;;;;;;;;;18.80;52.60;;;;;;5013419;28;19928;-68
2022/03/17 11:05:43;;;;;;;;;;;18.90;52.60;;;;;;5013015;28;20089;-67
2022/03/17 11:08:10;;;;;;;;;;;18.80;52.60;;;;;;5014869;28;19913;-67
2022/03/17 11:10:36;;;;;;;;;;;18.80;52.60;;;;;;5012334;28;19937;-67
2022/03/17 11:13:08;;;;;;;;;;;18.80;52.70;;;;;;5015187;28;20287;-67
2022/03/17 11:15:34;;;;;;;;;;;18.80;52.80;;;;;;5011543;28;20450;-67
2022/03/17 11:18:04;;;;;;;;;;;18.70;53.00;;;;;;5013167;28;19948;-67
2022/03/17 11:20:29;;;;;;;;;;;18.70;53.00;;;;;;5010228;28;19922;-67
2022/03/17 11:23:16;;;;;;;;;;;18.70;53.00;;;;;;5011562;28;20399;-66
2022/03/17 11:25:44;;;;;;;;;;;18.80;52.80;;;;;;5009545;28;20299;-67
2022/03/17 11:28:10;;;;;;;;;;;18.80;52.90;;;;;;5010797;28;19956;-68
2022/03/17 11:30:45;;;;;;;;;;;18.90;52.70;;;;;;5009697;28;19914;-67
2022/03/17 11:33:23;;;;;;;;;;;18.90;52.60;;;;;;5000966;28;19941;-66
2022/03/17 11:35:52;;;;;;;;;;;18.90;52.50;;;;;;5007467;28;20377;-68
2022/03/17 11:38:18;;;;;;;;;;;18.90;52.50;;;;;;5008594;28;19924;-67
2022/03/17 11:41:02;;;;;;;;;;;19.00;52.40;;;;;;5012688;28;19921;-67
2022/03/17 11:43:29;;;;;;;;;;;19.00;52.50;;;;;;5002386;28;19937;-67
2022/03/17 11:46:24;;;;;;;;;;;19.00;52.40;;;;;;5003632;28;19914;-67
2022/03/17 11:48:51;;;;;;;;;;;19.00;52.40;;;;;;4985467;28;20443;-64
2022/03/17 11:51:16;;;;;;;;;;;19.00;52.30;;;;;;5007422;28;19928;-65
2022/03/17 11:53:51;;;;;;;;;;;19.00;52.30;;;;;;5004924;28;20371;-67
2022/03/17 11:56:35;;;;;;;;;;;19.00;52.20;;;;;;5003850;28;19913;-64
2022/03/17 11:59:00;;;;;;;;;;;19.00;52.20;;;;;;5007985;28;19920;-67
2022/03/17 12:01:29;;;;;;;;;;;19.00;52.30;;;;;;5014360;28;19914;-66
2022/03/17 12:03:59;;;;;;;;;;;19.00;52.20;;;;;;5008779;28;19913;-68
2022/03/17 12:06:25;;;;;;;;;;;19.00;52.30;;;;;;5010534;28;19914;-67
2022/03/17 12:08:51;;;;;;;;;;;19.00;52.40;;;;;;5008622;28;20008;-67
2022/03/17 12:11:18;;;;;;;;;;;19.00;52.20;;;;;;5011293;28;19913;-68
2022/03/17 12:14:03;;;;;;;;;;;19.00;52.20;;;;;;5009300;28;19975;-68
2022/03/17 12:16:41;;;;;;;;;;;19.00;52.30;;;;;;5009375;28;20348;-67
2022/03/17 12:19:06;;;;;;;;;;;19.00;52.20;;;;;;5008903;28;19921;-68
2022/03/17 12:21:51;;;;;;;;;;;19.00;52.30;;;;;;5008707;28;20265;-68
2022/03/17 12:24:35;;;;;;;;;;;19.00;52.20;;;;;;5008576;28;19965;-68
2022/03/17 12:27:11;;;;;;;;;;;19.00;52.10;;;;;;5014704;28;19920;-68
2022/03/17 12:29:36;;;;;;;;;;;19.00;52.10;;;;;;5008444;28;19917;-67
2022/03/17 12:32:02;;;;;;;;;;;19.00;52.10;;;;;;5007670;28;19919;-67
2022/03/17 12:34:28;;;;;;;;;;;19.00;52.10;;;;;;5008557;28;19937;-67
2022/03/17 12:36:53;;;;;;;;;;;19.00;52.20;;;;;;5008644;28;19933;-67
2022/03/17 12:39:25;;;;;;;;;;;19.00;52.10;;;;;;5008024;28;19922;-67
2022/03/17 12:41:51;;;;;;;;;;;19.00;52.10;;;;;;5007986;28;20015;-67
2022/03/17 12:44:23;;;;;;;;;;;19.00;52.00;;;;;;5007420;28;20373;-66
2022/03/17 12:46:48;;;;;;;;;;;19.10;51.90;;;;;;5008878;28;19918;-66
2022/03/17 12:49:14;;;;;;;;;;;19.10;51.80;;;;;;5012005;28;19932;-67
2022/03/17 12:51:39;;;;;;;;;;;19.10;51.80;;;;;;5015839;28;19913;-67
2022/03/17 12:54:05;;;;;;;;;;;19.10;51.80;;;;;;5011675;28;19917;-67
2022/03/17 12:56:30;;;;;;;;;;;19.10;51.70;;;;;;5012383;28;19917;-67
2022/03/17 12:59:03;;;;;;;;;;;19.10;51.60;;;;;;5011843;28;19921;-67
2022/03/17 13:01:29;;;;;;;;;;;19.10;51.70;;;;;;5015279;22;20080;-50
2022/03/17 13:03:54;;;;;;;;;;;19.20;51.70;;;;;;5001822;28;19914;-53
2022/03/17 13:07:05;;;;;;;;;;;19.10;51.60;;;;;;5002780;28;19914;-53
2022/03/17 13:09:05;;;;;;;;;;;19.10;51.50;;;;;;4991351;28;19933;-52
2022/03/17 13:14:21;;;;;;;;;;;19.10;51.50;;;;;;5002274;28;19960;-46
2022/03/17 13:16:46;;;;;;;;;;;19.10;51.40;;;;;;5000928;28;20374;-52
2022/03/17 13:19:12;;;;;;;;;;;19.20;51.40;;;;;;5000191;28;19913;-55
2022/03/17 13:21:38;;;;;;;;;;;19.20;51.40;;;;;;5002269;28;19913;-57
2022/03/17 13:24:15;;;;;;;;;;;19.20;51.30;;;;;;5000451;28;20585;-54
2022/03/17 13:26:41;;;;;;;;;;;19.20;51.30;;;;;;5000629;28;20428;-56
2022/03/17 13:29:06;;;;;;;;;;;19.20;51.40;;;;;;4999833;28;19997;-52
2022/03/17 13:31:35;;;;;;;;;;;19.20;51.40;;;;;;5000427;28;20385;-52
2022/03/17 13:34:01;;;;;;;;;;;19.30;51.40;;;;;;5000546;28;19928;-57
2022/03/17 13:36:45;;;;;;;;;;;19.20;51.30;;;;;;5006106;28;19913;-51
2022/03/17 13:39:11;;;;;;;;;;;19.20;51.30;;;;;;5000713;28;19918;-57
2022/03/17 13:41:36;;;;;;;;;;;19.20;51.20;;;;;;4999930;28;19913;-52
2022/03/17 13:44:03;;;;;;;;;;;19.20;51.30;;;;;;5000105;28;19913;-52
2022/03/17 13:46:32;;;;;;;;;;;19.20;51.30;;;;;;4999695;28;19976;-55
2022/03/17 13:49:12;;;;;;;;;;;19.20;51.40;;;;;;4997815;28;19964;-54
2022/03/17 13:51:37;;;;;;;;;;;19.20;51.30;;;;;;5000231;28;20608;-54
2022/03/17 13:54:03;;;;;;;;;;;19.20;51.20;;;;;;4999686;28;19913;-53
2022/03/17 13:56:29;;;;;;;;;;;19.30;51.20;;;;;;5000127;28;20401;-51
2022/03/17 13:58:57;;;;;;;;;;;19.30;51.20;;;;;;4999205;28;19918;-56
2022/03/17 14:01:24;;;;;;;;;;;19.30;51.20;;;;;;5002019;28;19975;-55
2022/03/17 14:03:50;;;;;;;;;;;19.20;51.20;;;;;;5002017;28;19918;-56
2022/03/17 14:06:19;;;;;;;;;;;19.20;51.10;;;;;;4998937;28;19967;-53
2022/03/17 14:08:45;;;;;;;;;;;19.30;51.20;;;;;;5000796;28;20386;-55
2022/03/17 14:11:12;;;;;;;;;;;19.20;51.10;;;;;;5001828;28;20010;-54
2022/03/17 14:13:38;;;;;;;;;;;19.30;51.10;;;;;;5000924;28;20401;-54
2022/03/17 14:16:04;;;;;;;;;;;19.30;51.10;;;;;;5000699;28;19913;-53
2022/03/17 14:18:29;;;;;;;;;;;19.30;51.10;;;;;;5000118;28;19918;-54
2022/03/17 14:21:04;;;;;;;;;;;19.30;51.10;;;;;;5000614;28;19965;-55
2022/03/17 14:26:14;;;;;;;;;;;19.30;51.00;;;;;;4996794;28;20485;-54
2022/03/17 14:28:39;;;;;;;;;;;19.30;51.00;;;;;;5002192;28;19917;-56
2022/03/17 14:31:05;;;;;;;;;;;19.30;51.10;;;;;;5000087;28;20366;-54
2022/03/17 14:33:30;;;;;;;;;;;19.30;51.00;;;;;;5003406;28;19917;-55